WetterOnline ( https://www.wetteronline.ch )

Wetter aktuell Hamburg

Aktuelles Wetter: Hamburg/Fuhlsbüttel (15m)

6-stündlich | Neueste Meldungen
Ortszeit Temperatur Wetter
Di, 19.11. 1:00 5.9° C bedeckt
Mo, 18.11. 19:00 6.3° C leichter Regen
Mo, 18.11. 13:00 7.7° C bedeckt
Mo, 18.11. 7:00 7.9° C bedeckt
Mo, 18.11. 1:00 7.1° C bedeckt
So, 17.11. 19:00 5.6° C leichter Regen
So, 17.11. 13:00 5.6° C wolkig
So, 17.11. 7:00 -0.4° C leicht bewölkt
Ortszeit Temperatur Wetter
Di, 19.11. 1:00 5.9° C bedeckt
Di, 19.11. 0:50 6° C bewölkt
Di, 19.11. 0:40 5.9° C -
Di, 19.11. 0:30 6.0° C -
Di, 19.11. 0:20 6.0° C -
Di, 19.11. 0:10 6.1° C -
Di, 19.11. 0:00 6.0° C bedeckt
Mo, 18.11. 23:30 6.0° C -
Mo, 18.11. 23:00 5.8° C bedeckt
Mo, 18.11. 22:30 5.8° C -
Mo, 18.11. 22:00 5.7° C bedeckt
Ortszeit Relative Feuchte Sichtweite
Di, 19.11. 1:00 82% 45 km
Mo, 18.11. 19:00 92% 7 km
Mo, 18.11. 13:00 92% 6 km
Mo, 18.11. 7:00 91% 7 km
Mo, 18.11. 1:00 90% 14 km
So, 17.11. 19:00 86% 10 km
So, 17.11. 13:00 83% 15 km
So, 17.11. 7:00 92% 9 km
Ortszeit Relative Feuchte Sichtweite
Di, 19.11. 1:00 82% 45 km
Di, 19.11. 0:50 81% >10 km
Di, 19.11. 0:40 83% -
Di, 19.11. 0:30 83% 45 km
Di, 19.11. 0:20 83% -
Di, 19.11. 0:10 82% -
Di, 19.11. 0:00 83% 45 km
Mo, 18.11. 23:30 82% 45 km
Mo, 18.11. 23:00 83% 45 km
Mo, 18.11. 22:30 85% 45 km
Mo, 18.11. 22:00 84% 45 km
Ortszeit Niederschlagsmenge Niederschlagsart
Di, 19.11. 1:00 0.7 l/m2 in 6 Std. Regen
Mo, 18.11. 19:00 2 l/m2 in 12 Std. Regen
Mo, 18.11. 13:00 0.0 l/m2 in 6 Std. -
Mo, 18.11. 7:00 2 l/m2 in 12 Std. -
Mo, 18.11. 1:00 2 l/m2 in 6 Std. Regen
So, 17.11. 19:00 0.5 l/m2 in 12 Std. Regen
So, 17.11. 13:00 0.0 l/m2 in 6 Std. -
So, 17.11. 7:00 0.1 l/m2 in 12 Std. -
Ortszeit Niederschlagsmenge Niederschlagsart
Di, 19.11. 1:00 0.0 l/m2 in 1 Std. Regen
Di, 19.11. 0:50 keine Meldung -
Di, 19.11. 0:40 keine Meldung -
Di, 19.11. 0:30 0.0 l/m2 in 1 Std. -
Di, 19.11. 0:20 keine Meldung -
Di, 19.11. 0:10 keine Meldung -
Di, 19.11. 0:00 0.0 l/m2 in 1 Std. -
Mo, 18.11. 23:30 0.0 l/m2 in 1 Std. -
Mo, 18.11. 23:00 0.0 l/m2 in 1 Std. -
Mo, 18.11. 22:30 0.0 l/m2 in 1 Std. -
Mo, 18.11. 22:00 0.0 l/m2 in 1 Std. Regen
Ortszeit Stärke Spitze Richtung
km/h Bft. km/h Grad Sektor
Di, 19.11. 1:00 28 4 41 160° S
Mo, 18.11. 19:00 18 3 29 170° S
Mo, 18.11. 13:00 7 2 14 220° SW
Mo, 18.11. 7:00 4 1 25 100° O
Mo, 18.11. 1:00 13 3 30 30° NO
So, 17.11. 19:00 11 2 32 20° N
So, 17.11. 13:00 7 2 22 70° O
So, 17.11. 7:00 11 2 17 130° SO
Ortszeit Stärke Spitze Richtung
km/h Bft. km/h Grad Sektor
Di, 19.11. 1:00 28 4 39 160° S
Di, 19.11. 0:50 28 4 - 160° S
Di, 19.11. 0:40 28 4 - 160° S
Di, 19.11. 0:30 28 4 37 160° S
Di, 19.11. 0:20 28 4 - 160° S
Di, 19.11. 0:10 28 4 - 160° S
Di, 19.11. 0:00 25 4 36 170° S
Mo, 18.11. 23:30 24 4 35 180° S
Mo, 18.11. 23:00 20 4 39 180° S
Mo, 18.11. 22:30 22 4 32 180° S
Mo, 18.11. 22:00 22 4 32 170° S
Ortszeit Untergrenze Bedeckung Gattung
total tief tief mittel hoch
Di, 19.11. 1:00 360 m 8/8 7/8 Sc - -
Mo, 18.11. 19:00 150 m 8/8 7/8 St - -
Mo, 18.11. 13:00 120 m 8/8 8/8 St - -
Mo, 18.11. 7:00 150 m 8/8 8/8 St - -
Mo, 18.11. 1:00 240 m 8/8 8/8 Sc - -
So, 17.11. 19:00 1050 m 8/8 2/8 Sc Ns -
So, 17.11. 13:00 3900 m 7/8 7/8 - As -
So, 17.11. 7:00 6900 m 3/8 3/8 - - Ci
Ortszeit Bedeckungsgrad in Achtel und Wolkenuntergrenze
Di, 19.11. 1:00 2(360m) 7(420m) 8
Di, 19.11. 0:50 1-2(360m) 5-7(420m)
Di, 19.11. 0:40 -
Di, 19.11. 0:30 -
Di, 19.11. 0:20 -
Di, 19.11. 0:10 -
Di, 19.11. 0:00 2(360m) 7(450m) 8
Mo, 18.11. 23:30 -
Mo, 18.11. 23:00 3(360m) 7(450m) 8
Mo, 18.11. 22:30 -
Mo, 18.11. 22:00 2(300m) 7(450m) 8
Ortszeit Luftdruck NN (hPa) Tendenz (hPa in 3 Std.)
Di, 19.11. 1:00 1004 - 0,6
Mo, 18.11. 19:00 1005 + 0,5
Mo, 18.11. 13:00 1004 - 0,9
Mo, 18.11. 7:00 1004 - 0,6
Mo, 18.11. 1:00 1006 - 2,6
So, 17.11. 19:00 1012 - 1,3
So, 17.11. 13:00 1015 - 1,0
So, 17.11. 7:00 1014 + 0,8
Ortszeit Luftdruck NN (hPa) Tendenz (hPa in 3 Std.)
Di, 19.11. 1:00 1004 - 0,6
Di, 19.11. 0:50 1003 keine Meldung
Di, 19.11. 0:40 1004 keine Meldung
Di, 19.11. 0:30 1004 - 0,7
Di, 19.11. 0:20 1004 keine Meldung
Di, 19.11. 0:10 1004 keine Meldung
Di, 19.11. 0:00 1004 - 0,7
Mo, 18.11. 23:30 1004 - 0,6
Mo, 18.11. 23:00 1004 - 0,5
Mo, 18.11. 22:30 1004 - 0,3
Mo, 18.11. 22:00 1004 - 0,3
Ortszeit Schneehöhe (cm)
Di, 19.11. 1:00 0
Mo, 18.11. 19:00 0
Mo, 18.11. 13:00 0
Mo, 18.11. 7:00 0
Mo, 18.11. 1:00 0
So, 17.11. 19:00 0
So, 17.11. 13:00 0
So, 17.11. 7:00 0
Ortszeit Schneehöhe (cm)
Di, 19.11. 1:00 0
Di, 19.11. 0:50 -
Di, 19.11. 0:40 -
Di, 19.11. 0:30 -
Di, 19.11. 0:20 -
Di, 19.11. 0:10 -
Di, 19.11. 0:00 -
Mo, 18.11. 23:30 -
Mo, 18.11. 23:00 -
Mo, 18.11. 22:30 -
Mo, 18.11. 22:00 -
Link zu dieser Seite / Seite empfehlen

Das Wetter in ...